createdAt,value
2018-04-12T00:02:17.539Z,32.20
2018-04-12T00:07:20.098Z,35.87
2018-04-12T00:12:22.588Z,32.77
2018-04-12T00:17:25.097Z,37.33
2018-04-12T00:22:27.573Z,32.83
2018-04-12T00:27:30.062Z,35.27
2018-04-12T00:32:32.556Z,34.03
2018-04-12T00:37:35.186Z,36.67
2018-04-12T00:42:37.697Z,34.17
2018-04-12T00:47:40.182Z,37.27
2018-04-12T00:52:42.769Z,36.27
2018-04-12T00:57:45.469Z,35.50
2018-04-12T01:02:48.087Z,35.17
2018-04-12T01:07:51.309Z,34.53
2018-04-12T01:12:53.855Z,35.40
2018-04-12T01:17:56.342Z,37.30
2018-04-12T01:22:58.868Z,36.60
2018-04-12T01:28:01.468Z,38.97
2018-04-12T01:33:22.834Z,40.07
2018-04-12T01:38:25.393Z,39.07
2018-04-12T01:43:27.867Z,38.90
2018-04-12T01:48:30.390Z,36.30
2018-04-12T01:53:32.887Z,35.47
2018-04-12T01:58:35.354Z,38.40
2018-04-12T02:03:37.889Z,38.93
2018-04-12T02:08:40.359Z,41.40
2018-04-12T02:13:42.922Z,39.77
2018-04-12T02:18:45.446Z,37.93
2018-04-12T02:23:50.139Z,39.47
2018-04-12T02:28:52.787Z,43.40
2018-04-12T02:33:55.263Z,40.77
2018-04-12T02:38:57.757Z,38.60
2018-04-12T02:44:00.233Z,39.53
2018-04-12T02:49:02.709Z,43.30
2018-04-12T02:54:05.200Z,39.07
2018-04-12T02:59:07.667Z,38.57
2018-04-12T03:04:10.163Z,39.47
2018-04-12T03:09:13.517Z,41.17
2018-04-12T03:14:16.230Z,44.00
2018-04-12T03:19:19.323Z,40.27
2018-04-12T03:24:21.882Z,41.50
2018-04-12T03:29:24.380Z,42.80
2018-04-12T03:34:26.867Z,39.87
2018-04-12T03:39:29.371Z,40.20
2018-04-12T03:44:31.872Z,43.00
2018-04-12T03:49:34.463Z,41.13
2018-04-12T03:54:37.127Z,43.73
2018-04-12T03:59:39.656Z,45.23
2018-04-12T04:04:42.301Z,41.00
2018-04-12T04:09:44.985Z,44.67
2018-04-12T04:20:34.724Z,42.80
2018-04-12T04:25:37.255Z,41.87
2018-04-12T04:30:39.712Z,45.17
2018-04-12T04:35:42.311Z,38.93
2018-04-12T04:40:44.920Z,42.10
2018-04-12T04:45:47.548Z,46.23
2018-04-12T04:50:50.092Z,43.37
2018-04-12T04:55:52.641Z,40.00
2018-04-12T05:00:55.102Z,43.57
2018-04-12T05:05:57.864Z,35.00
2018-04-12T05:11:00.337Z,41.17
2018-04-12T05:16:02.837Z,39.67
2018-04-12T05:21:05.316Z,38.37
2018-04-12T05:26:07.852Z,37.53
2018-04-12T05:31:10.349Z,36.03
2018-04-12T05:36:12.934Z,29.63
2018-04-12T05:41:16.496Z,28.63
2018-04-12T05:46:19.027Z,32.47
2018-04-12T05:51:21.566Z,28.30
2018-04-12T05:56:24.158Z,25.33
2018-04-12T06:01:26.637Z,24.97
2018-04-12T06:06:29.091Z,26.23
2018-04-12T06:11:31.632Z,23.23
2018-04-12T06:16:34.127Z,23.67
2018-04-12T06:21:36.597Z,26.27
2018-04-12T06:26:39.069Z,26.80
2018-04-12T06:31:41.779Z,26.97
2018-04-12T06:36:45.479Z,28.53
2018-04-12T06:41:48.054Z,30.17
2018-04-12T06:46:50.670Z,26.53
2018-04-12T06:51:54.189Z,28.63
2018-04-12T06:56:57.000Z,24.90
2018-04-12T07:01:59.658Z,26.50
2018-04-12T07:07:02.131Z,25.37
2018-04-12T07:12:04.632Z,25.93
2018-04-12T07:17:07.106Z,24.90
2018-04-12T07:22:09.553Z,25.03
2018-04-12T07:27:12.059Z,24.50
2018-04-12T07:32:14.567Z,26.37
2018-04-12T07:37:17.095Z,24.43
2018-04-12T07:42:19.630Z,24.43
2018-04-12T07:47:22.282Z,21.67
2018-04-12T07:52:24.805Z,20.83
2018-04-12T07:57:27.275Z,21.03
2018-04-12T08:02:29.766Z,20.97
2018-04-12T08:07:32.281Z,22.30
2018-04-12T08:12:34.793Z,19.30
2018-04-12T08:17:38.358Z,19.53
2018-04-12T08:22:40.887Z,18.83
2018-04-12T08:27:43.460Z,18.73
2018-04-12T08:32:46.323Z,18.03
2018-04-12T08:37:48.923Z,20.17
2018-04-12T08:42:51.439Z,16.43
2018-04-12T08:47:54.041Z,17.90
2018-04-12T08:52:56.661Z,16.57
2018-04-12T08:57:59.153Z,16.43
2018-04-12T09:03:01.660Z,15.43
2018-04-12T09:08:04.138Z,17.97
2018-04-12T09:13:06.620Z,20.20
2018-04-12T09:18:09.226Z,14.27
2018-04-12T09:23:11.968Z,14.17
2018-04-12T09:28:14.753Z,14.57
2018-04-12T09:33:17.387Z,13.20
2018-04-12T09:38:19.828Z,13.17
2018-04-12T09:43:22.303Z,16.13
2018-04-12T09:48:24.751Z,13.67
2018-04-12T09:53:27.233Z,11.73
2018-04-12T09:58:30.052Z,11.17
2018-04-12T10:03:32.988Z,9.60
2018-04-12T10:08:35.473Z,12.33
2018-04-12T10:13:38.099Z,10.23
2018-04-12T10:18:40.683Z,10.30
2018-04-12T10:23:43.254Z,9.03
2018-04-12T10:28:45.798Z,11.20
2018-04-12T10:33:48.401Z,11.30
2018-04-12T10:38:50.992Z,11.40
2018-04-12T10:43:53.549Z,13.87
2018-04-12T10:48:56.121Z,12.40
2018-04-12T10:53:58.592Z,11.33
2018-04-12T10:59:01.073Z,9.03
2018-04-12T11:04:03.568Z,8.13
2018-04-12T11:09:06.044Z,7.80
2018-04-12T11:14:08.555Z,10.67
2018-04-12T11:19:11.245Z,7.00
2018-04-12T11:24:13.890Z,8.97
2018-04-12T11:29:17.476Z,11.33
2018-04-12T11:34:21.336Z,7.87
2018-04-12T11:39:24.051Z,8.37
2018-04-12T11:44:26.648Z,7.80
2018-04-12T11:49:29.119Z,8.30
2018-04-12T11:54:31.598Z,9.60
2018-04-12T11:59:34.241Z,8.00
2018-04-12T12:04:36.747Z,10.03
2018-04-12T12:09:39.260Z,6.10
2018-04-12T12:14:41.707Z,18.70
2018-04-12T12:19:44.511Z,11.30
2018-04-12T12:24:47.315Z,7.43
2018-04-12T12:29:49.838Z,7.43
2018-04-12T12:34:52.352Z,6.87
2018-04-12T12:39:54.864Z,7.40
2018-04-12T12:44:57.339Z,8.03
2018-04-12T12:49:59.830Z,7.53
2018-04-12T12:55:02.465Z,9.77
2018-04-12T13:00:04.944Z,9.47
2018-04-12T13:05:07.852Z,5.97
2018-04-12T13:10:10.335Z,8.20
2018-04-12T13:15:12.815Z,7.30
2018-04-12T13:20:15.328Z,10.17
2018-04-12T13:25:17.899Z,5.93
2018-04-12T13:30:20.413Z,9.80
2018-04-12T13:35:22.916Z,6.80
2018-04-12T13:40:25.419Z,7.27
2018-04-12T13:45:27.896Z,9.70
2018-04-12T13:50:30.372Z,8.73
2018-04-12T13:55:32.830Z,9.00
2018-04-12T14:00:35.298Z,7.47
2018-04-12T14:05:37.789Z,7.10
2018-04-12T14:10:40.267Z,8.13
2018-04-12T14:15:42.826Z,9.23
2018-04-12T14:20:45.397Z,8.50
2018-04-12T14:25:47.968Z,11.87
2018-04-12T14:30:50.499Z,9.17
2018-04-12T14:35:53.013Z,8.00
2018-04-12T14:40:55.498Z,11.57
2018-04-12T14:45:58.808Z,10.13
2018-04-12T14:51:01.322Z,13.27
2018-04-12T14:56:03.804Z,10.93
2018-04-12T15:01:06.284Z,7.53
2018-04-12T15:06:10.848Z,13.17
2018-04-12T15:11:13.441Z,9.17
2018-04-12T15:16:16.029Z,7.27
2018-04-12T15:21:18.540Z,14.70
2018-04-12T15:26:21.027Z,10.07
2018-04-12T15:31:23.564Z,10.53
2018-04-12T15:36:26.028Z,10.13
2018-04-12T15:41:28.490Z,9.17
2018-04-12T15:46:30.959Z,8.80
2018-04-12T15:51:33.422Z,6.83
2018-04-12T15:56:35.946Z,9.77
2018-04-12T16:01:38.431Z,8.50
2018-04-12T16:06:40.889Z,6.90
2018-04-12T16:11:43.418Z,6.57
2018-04-12T16:16:45.941Z,6.33
2018-04-12T16:21:48.533Z,6.73
2018-04-12T16:26:51.041Z,8.17
2018-04-12T16:31:53.522Z,8.07
2018-04-12T16:36:55.985Z,7.77
2018-04-12T16:41:58.477Z,8.53
2018-04-12T16:47:00.968Z,7.70
2018-04-12T16:52:03.442Z,10.10
2018-04-12T16:57:05.910Z,8.43
2018-04-12T17:02:08.417Z,9.40
2018-04-12T17:07:10.889Z,10.47
2018-04-12T17:12:13.553Z,9.57
2018-04-12T17:17:16.101Z,10.70
2018-04-12T17:22:18.954Z,12.77
2018-04-12T17:27:21.431Z,12.90
2018-04-12T17:32:23.938Z,12.80
2018-04-12T17:37:29.166Z,14.43
2018-04-12T17:42:31.832Z,12.83
2018-04-12T17:47:34.320Z,15.07
2018-04-12T17:52:36.807Z,13.83
2018-04-12T17:57:39.312Z,12.80
2018-04-12T18:02:41.800Z,14.83
2018-04-12T18:07:44.375Z,12.87
2018-04-12T18:12:46.924Z,15.37
2018-04-12T18:17:49.446Z,15.17
2018-04-12T18:22:51.935Z,19.30
2018-04-12T18:27:54.413Z,16.63
2018-04-12T18:32:56.882Z,18.37
2018-04-12T18:37:59.373Z,18.17
2018-04-12T18:43:01.885Z,20.67
2018-04-12T18:48:04.388Z,17.13
2018-04-12T18:53:06.874Z,19.20
2018-04-12T18:58:09.382Z,18.10
2018-04-12T19:03:11.872Z,18.70
2018-04-12T19:08:14.720Z,19.43
2018-04-12T19:13:17.277Z,19.20
2018-04-12T19:18:19.998Z,18.37
2018-04-12T19:23:22.486Z,18.03
2018-04-12T19:28:26.240Z,18.77
2018-04-12T19:33:28.786Z,20.90
2018-04-12T19:38:31.299Z,19.83
2018-04-12T19:43:33.863Z,23.20
2018-04-12T19:48:36.313Z,22.77
2018-04-12T19:53:38.809Z,19.00
2018-04-12T19:58:41.283Z,21.43
2018-04-12T20:03:43.860Z,21.07
2018-04-12T20:08:46.368Z,21.77
2018-04-12T20:13:48.917Z,21.60
2018-04-12T20:18:51.424Z,22.33
2018-04-12T20:23:53.921Z,25.67
2018-04-12T20:28:56.393Z,23.00
2018-04-12T20:33:58.950Z,23.83
2018-04-12T20:39:01.414Z,23.40
2018-04-12T20:44:03.903Z,28.20
2018-04-12T20:49:06.399Z,27.37
2018-04-12T20:54:08.868Z,26.93
2018-04-12T20:59:11.353Z,27.93
2018-04-12T21:04:14.515Z,29.43
2018-04-12T21:09:17.130Z,24.53
2018-04-12T21:14:19.675Z,29.70
2018-04-12T21:19:22.208Z,28.00
2018-04-12T21:24:24.691Z,26.50
2018-04-12T21:29:27.174Z,28.10
2018-04-12T21:34:29.662Z,27.03
2018-04-12T21:39:32.238Z,28.80
2018-04-12T21:44:34.708Z,31.07
2018-04-12T21:49:37.222Z,29.37
2018-04-12T21:54:39.720Z,30.30
2018-04-12T21:59:42.211Z,31.17
2018-04-12T22:04:44.735Z,27.63
2018-04-12T22:09:47.318Z,29.20
2018-04-12T22:14:49.854Z,31.70
2018-04-12T22:19:52.391Z,29.57
2018-04-12T22:24:54.932Z,30.07
2018-04-12T22:29:57.396Z,31.67
2018-04-12T22:34:59.855Z,29.33
2018-04-12T22:40:02.403Z,28.53
2018-04-12T22:45:04.868Z,30.90
2018-04-12T22:50:07.347Z,29.10
2018-04-12T22:55:10.261Z,28.80
2018-04-12T23:00:13.710Z,28.67
2018-04-12T23:05:16.286Z,29.47
2018-04-12T23:10:18.811Z,28.03
2018-04-12T23:15:21.523Z,28.30
2018-04-12T23:20:24.035Z,28.97
2018-04-12T23:25:26.520Z,29.80
2018-04-12T23:30:29.020Z,29.97
2018-04-12T23:35:31.513Z,30.47
2018-04-12T23:40:34.035Z,28.20
2018-04-12T23:45:36.532Z,31.23
2018-04-12T23:50:39.006Z,29.30
2018-04-12T23:55:41.501Z,27.63
